Stillwater, OK

6:49 PM CDT on September 02, 2015 (GMT -0500)
Stillwater, East Side | | Change Station
CLOSE
Current Station
Personal Weather Station
Location: Stillwater, OK
Elevation: 935 ft
Nearby Weather Stations

Elev 935 ft 36.12 °N, 97.04 °W | Updated 7 seconds ago

Clear
Clear
90.8 °F
Feels Like 94 °F
N
3.0
Wind Variable Wind from SSE
Gusts 12.0 mph

Today
High -- | Low -- °F
--% Chance of Precip.
Yesterday
High -- | Low -- °F
Precip. -- in
7:00 AM 7:54 PM
Waning Gibbous, 76% visible
Pressure 29.88 in
Visibility 10.0 miles
Clouds Clear
Heat Index 94 °F
Dew Point 67 °F
Humidity 46%
Rainfall 0.00 in
Snow Depth Not available.
UV 0.6 out of 12
Pollen 10.20 out of 12
Air Quality Not available.
Flu Activity Not available.
METAR KSWO 022253Z 17011G21KT 10SM CLR 33/18 A2992 RMK AO2 SLP117 T03280178
Pressure 29.88 in
Visibility 10.0 miles
Clouds Clear
Heat Index 94 °F
Dew Point 67 °F
Humidity 46%
Rainfall 0.00 in
Snow Depth Not available.
UV 0.6 out of 12
Pollen 10.20 out of 12
Air Quality Not available.
Flu Activity Not available.
METAR KSWO 022253Z 17011G21KT 10SM CLR 33/18 A2992 RMK AO2 SLP117 T03280178

10-Day Weather Forecast

×

Almanac

Astronomy

Sep. 02, 2015 Rise Set
Actual Time
Civil Twilight
Nautical Twilight
Astronomical Twilight
Moon
Length of Visible Light
Length of Day
Tomorrow will be .
, % of the Moon is Illuminated

Today's Extremes

State Highs State Lows

Community

WunderPhotos

Upload Photos

1,851,841 photos uploaded!

WunderBlogs® & News

Nearby

Air Quality

  Air Quality AQ Index Pollutant
Not available.

Snow Depth

Station Depth Elevation

Earthquake Activity

City Distance Mag. Time & Date
Minimum magnitude displayed is 2.5.

Coastal Water Temperatures

Place Temperature

Stations

Nearby Weather Stations

Station Location Temp. Windchill Dew Point Humidity Wind Precip. Elev Updated Type